createdAt,value
2019-04-06T00:00:42.011Z,99996.27
2019-04-06T00:03:13.685Z,99994.09
2019-04-06T00:05:45.487Z,99996.71
2019-04-06T00:08:17.559Z,99996.27
2019-04-06T00:10:48.988Z,100001.03
2019-04-06T00:13:21.772Z,99997.16
2019-04-06T00:15:53.091Z,100000.59
2019-04-06T00:18:24.514Z,99994.97
2019-04-06T00:20:55.943Z,99996.72
2019-04-06T00:23:28.715Z,100001.46
2019-04-06T00:26:00.986Z,100010.12
2019-04-06T00:28:32.999Z,100015.75
2019-04-06T00:31:12.981Z,100016.58
2019-04-06T00:33:44.613Z,100011.40
2019-04-06T00:36:16.370Z,100014.86
2019-04-06T00:38:50.087Z,100018.34
2019-04-06T00:41:22.035Z,100021.77
2019-04-06T00:43:53.790Z,100032.19
2019-04-06T00:46:26.432Z,100021.34
2019-04-06T00:48:57.966Z,100023.08
2019-04-06T00:51:29.417Z,100025.25
2019-04-06T00:54:00.888Z,100025.25
2019-04-06T00:56:33.253Z,100020.91
2019-04-06T00:59:05.620Z,100026.55
2019-04-06T01:01:37.732Z,100028.71
2019-04-06T01:04:09.564Z,100026.97
2019-04-06T01:06:40.942Z,100030.02
2019-04-06T01:09:12.401Z,100036.07
2019-04-06T01:11:44.019Z,100041.67
2019-04-06T01:14:15.485Z,100033.45
2019-04-06T01:16:46.972Z,100029.56
2019-04-06T01:19:18.353Z,100029.14
2019-04-06T01:21:50.393Z,100029.55
2019-04-06T01:24:22.588Z,100020.94
2019-04-06T01:26:54.149Z,100025.23
2019-04-06T01:29:25.986Z,100014.84
2019-04-06T01:31:58.592Z,100025.26
2019-04-06T01:34:31.383Z,100021.77
2019-04-06T01:37:03.324Z,100021.80
2019-04-06T01:39:37.191Z,100020.08
2019-04-06T01:42:09.240Z,100014.84
2019-04-06T01:44:41.803Z,100029.16
2019-04-06T01:47:13.203Z,100035.19
2019-04-06T01:49:45.210Z,100040.38
2019-04-06T01:52:16.655Z,100046.00
2019-04-06T01:54:48.974Z,100038.22
2019-04-06T01:57:21.496Z,100026.11
2019-04-06T01:59:53.818Z,100018.75
2019-04-06T02:02:34.645Z,100022.66
2019-04-06T02:05:07.058Z,100017.02
2019-04-06T02:07:40.273Z,100007.51
2019-04-06T02:10:12.334Z,100011.84
2019-04-06T02:16:20.088Z,100015.27
2019-04-06T02:18:52.101Z,100013.97
2019-04-06T02:21:24.253Z,100011.39
2019-04-06T02:23:56.062Z,100011.39
2019-04-06T02:26:30.567Z,100007.91
2019-04-06T02:29:01.611Z,100007.47
2019-04-06T02:32:04.183Z,100013.97
2019-04-06T02:35:09.955Z,100005.30
2019-04-06T02:37:50.325Z,99995.78
2019-04-06T02:40:44.460Z,100003.97
2019-04-06T02:43:25.031Z,99998.77
2019-04-06T02:45:56.872Z,100003.96
2019-04-06T02:48:28.376Z,100000.08
2019-04-06T02:50:59.931Z,99994.44
2019-04-06T02:53:31.345Z,99999.20
2019-04-06T02:56:03.170Z,100025.97
2019-04-06T02:58:35.750Z,100034.95
2019-04-06T03:01:07.728Z,100022.00
2019-04-06T03:03:39.466Z,100014.70
2019-04-06T03:06:11.096Z,100020.77
2019-04-06T03:08:43.297Z,100023.81
2019-04-06T03:11:14.769Z,100011.27
2019-04-06T03:13:46.894Z,100010.83
2019-04-06T03:16:18.942Z,100008.68
2019-04-06T03:18:50.325Z,100001.75
2019-04-06T03:21:22.207Z,100005.23
2019-04-06T03:23:53.894Z,100007.78
2019-04-06T03:26:25.375Z,100004.36
2019-04-06T03:28:59.534Z,100004.76
2019-04-06T03:31:31.460Z,100008.66
2019-04-06T03:34:03.624Z,100007.38
2019-04-06T03:36:35.646Z,99994.83
2019-04-06T03:39:08.513Z,99987.05
2019-04-06T03:41:41.437Z,99991.38
2019-04-06T03:44:13.221Z,99990.09
2019-04-06T03:46:45.538Z,99982.72
2019-04-06T03:49:17.288Z,99985.34
2019-04-06T03:51:49.354Z,99976.67
2019-04-06T03:54:21.051Z,99974.95
2019-04-06T03:56:52.832Z,99984.45
2019-04-06T03:59:24.172Z,99971.91
2019-04-06T04:01:55.426Z,99977.56
2019-04-06T04:04:26.748Z,99975.39
2019-04-06T04:06:58.228Z,99974.09
2019-04-06T04:09:29.584Z,99974.55
2019-04-06T04:12:02.222Z,99970.66
2019-04-06T04:14:34.311Z,99974.52
2019-04-06T04:17:05.761Z,99975.77
2019-04-06T04:19:37.712Z,99968.45
2019-04-06T04:22:09.500Z,99966.28
2019-04-06T04:24:41.196Z,99960.24
2019-04-06T04:27:12.447Z,99960.24
2019-04-06T04:29:44.241Z,99968.39
2019-04-06T04:32:15.624Z,99961.91
2019-04-06T04:34:47.691Z,99954.14
2019-04-06T04:37:19.429Z,99961.91
2019-04-06T04:39:50.746Z,99969.67
2019-04-06T04:42:22.009Z,99959.30
2019-04-06T04:44:53.692Z,99980.84
2019-04-06T04:47:25.494Z,99976.48
2019-04-06T04:49:56.754Z,99966.57
2019-04-06T04:52:28.186Z,99963.61
2019-04-06T04:55:00.325Z,99959.73
2019-04-06T04:57:40.111Z,99990.77
2019-04-06T05:00:05.675Z,99994.16
2019-04-06T05:02:36.988Z,99996.77
2019-04-06T05:05:09.676Z,99997.61
2019-04-06T05:07:41.591Z,99997.16
2019-04-06T05:10:13.349Z,99993.30
2019-04-06T05:12:45.012Z,100007.52
2019-04-06T05:15:23.221Z,100003.66
2019-04-06T05:17:55.301Z,100012.70
2019-04-06T05:20:26.943Z,100002.30
2019-04-06T05:22:58.695Z,100000.17
2019-04-06T05:25:30.023Z,99995.02
2019-04-06T05:28:01.758Z,99989.01
2019-04-06T05:30:33.439Z,99998.09
2019-04-06T05:33:05.100Z,99995.95
2019-04-06T05:35:36.851Z,100002.00
2019-04-06T05:38:09.377Z,99995.52
2019-04-06T05:40:40.692Z,99993.80
2019-04-06T05:43:12.449Z,100000.28
2019-04-06T05:45:44.542Z,100002.95
2019-04-06T05:48:16.354Z,100011.14
2019-04-06T05:50:47.626Z,100007.24
2019-04-06T05:53:20.694Z,100004.23
2019-04-06T05:55:52.481Z,99997.38
2019-04-06T05:58:23.882Z,99991.78
2019-04-06T06:00:55.530Z,99990.06
2019-04-06T06:03:27.875Z,99995.70
2019-04-06T06:05:59.596Z,100000.05
2019-04-06T06:08:31.278Z,100003.13
2019-04-06T06:11:02.844Z,100006.58
2019-04-06T06:13:34.228Z,100010.05
2019-04-06T06:16:06.116Z,100001.84
2019-04-06T06:18:38.073Z,100014.86
2019-04-06T06:21:09.352Z,100019.17
2019-04-06T06:23:41.591Z,100018.33
2019-04-06T06:26:12.903Z,100015.29
2019-04-06T06:28:44.663Z,100008.80
2019-04-06T06:31:16.188Z,100013.13
2019-04-06T06:33:47.728Z,100012.27
2019-04-06T06:36:19.175Z,100011.40
2019-04-06T06:38:50.526Z,100015.71
2019-04-06T06:41:22.008Z,100017.44
2019-04-06T06:43:53.490Z,100026.52
2019-04-06T06:46:25.061Z,100028.22
2019-04-06T06:48:57.322Z,100033.40
2019-04-06T06:51:29.192Z,100026.42
2019-04-06T06:54:00.733Z,100029.00
2019-04-06T06:56:32.179Z,100034.19
2019-04-06T06:59:03.948Z,100042.81
2019-04-06T07:01:35.356Z,100041.94
2019-04-06T07:04:06.648Z,100036.69
2019-04-06T07:06:37.916Z,100042.32
2019-04-06T07:09:10.114Z,100040.94
2019-04-06T07:11:41.404Z,100044.74
2019-04-06T07:14:12.775Z,100046.41
2019-04-06T07:16:44.737Z,100042.02
2019-04-06T07:19:16.357Z,100038.48
2019-04-06T07:21:48.999Z,100047.12
2019-04-06T07:24:20.393Z,100045.34
2019-04-06T07:26:51.663Z,100041.79
2019-04-06T07:29:23.078Z,100042.11
2019-04-06T07:31:54.415Z,100040.81
2019-04-06T07:34:25.804Z,100052.02
2019-04-06T07:36:57.364Z,100050.66
2019-04-06T07:39:29.092Z,100051.03
2019-04-06T07:42:00.391Z,100049.95
2019-04-06T07:44:32.147Z,100043.00
2019-04-06T07:47:03.417Z,100040.83
2019-04-06T07:49:35.679Z,100040.32
2019-04-06T07:52:06.917Z,100045.47
2019-04-06T07:54:39.258Z,100043.98
2019-04-06T07:57:11.390Z,100046.16
2019-04-06T07:59:43.478Z,100048.69
2019-04-06T08:02:15.233Z,100051.98
2019-04-06T08:04:46.655Z,100056.99
2019-04-06T08:07:18.488Z,100046.42
2019-04-06T08:09:50.309Z,100052.38
2019-04-06T08:12:21.668Z,100054.08
2019-04-06T08:14:53.328Z,100051.27
2019-04-06T08:17:24.684Z,100052.88
2019-04-06T08:19:56.530Z,100054.42
2019-04-06T08:22:27.861Z,100056.55
2019-04-06T08:24:59.195Z,100051.88
2019-04-06T08:27:30.888Z,100048.91
2019-04-06T08:30:03.515Z,100051.19
2019-04-06T08:32:34.863Z,100049.12
2019-04-06T08:35:07.043Z,100047.41
2019-04-06T08:37:38.404Z,100049.80
2019-04-06T08:40:09.994Z,100052.00
2019-04-06T08:42:41.663Z,100055.75
2019-04-06T08:45:14.587Z,100059.20
2019-04-06T08:47:46.033Z,100060.25
2019-04-06T08:50:18.060Z,100059.23
2019-04-06T08:52:49.431Z,100059.11
2019-04-06T08:55:20.781Z,100060.32
2019-04-06T08:57:52.536Z,100059.70
2019-04-06T09:00:24.494Z,100066.92
2019-04-06T09:02:56.935Z,100073.80
2019-04-06T09:05:28.656Z,100064.44
2019-04-06T09:08:00.332Z,100063.93
2019-04-06T09:10:33.174Z,100056.78
2019-04-06T09:13:04.430Z,100056.50
2019-04-06T09:15:36.026Z,100054.89
2019-04-06T09:18:07.474Z,100060.72
2019-04-06T09:20:39.560Z,100046.38
2019-04-06T09:23:11.521Z,100045.56
2019-04-06T09:25:43.025Z,100043.76
2019-04-06T09:28:14.448Z,100039.78
2019-04-06T09:30:46.771Z,100051.30
2019-04-06T09:33:19.225Z,100044.95
2019-04-06T09:35:51.151Z,100051.48
2019-04-06T09:38:24.532Z,100036.89
2019-04-06T09:40:56.672Z,100040.37
2019-04-06T09:43:28.738Z,100029.30
2019-04-06T09:46:16.796Z,100031.69
2019-04-06T09:49:10.429Z,100035.69
2019-04-06T09:52:09.615Z,100023.11
2019-04-06T09:54:55.485Z,100029.53
2019-04-06T09:58:01.505Z,100032.55
2019-04-06T10:00:54.717Z,100017.99
2019-04-06T10:03:54.750Z,100020.63
2019-04-06T10:06:44.908Z,100014.06
2019-04-06T10:09:34.216Z,100017.19
2019-04-06T10:12:24.630Z,100014.23
2019-04-06T10:15:16.118Z,100016.33
2019-04-06T10:18:15.785Z,100010.95
2019-04-06T10:20:56.637Z,100008.14
2019-04-06T10:23:49.953Z,100003.05
2019-04-06T10:26:34.461Z,100002.40
2019-04-06T10:29:28.298Z,99991.29
2019-04-06T10:32:27.311Z,99996.25
2019-04-06T10:35:35.812Z,99995.33
2019-04-06T10:38:38.804Z,99994.30
2019-04-06T10:41:35.231Z,99977.45
2019-04-06T10:44:37.694Z,99980.19
2019-04-06T10:47:33.621Z,99979.98
2019-04-06T10:50:33.674Z,99974.11
2019-04-06T10:53:27.115Z,99976.80
2019-04-06T10:56:05.760Z,99975.80
2019-04-06T10:59:03.692Z,99974.29
2019-04-06T11:01:57.051Z,99971.80
2019-04-06T11:04:36.026Z,99971.08
2019-04-06T11:07:26.972Z,99966.28
2019-04-06T11:10:26.450Z,99971.91
2019-04-06T11:13:15.850Z,99963.97
2019-04-06T11:16:25.274Z,99967.98
2019-04-06T11:19:10.576Z,99963.73
2019-04-06T11:22:00.342Z,99963.61
2019-04-06T11:24:57.796Z,99960.85
2019-04-06T11:27:51.147Z,99963.32
2019-04-06T11:30:44.141Z,99957.64
2019-04-06T11:33:34.903Z,99950.00
2019-04-06T11:36:25.549Z,99950.55
2019-04-06T11:39:17.483Z,99950.17
2019-04-06T11:42:14.260Z,99942.39
2019-04-06T11:45:13.491Z,99935.58
2019-04-06T11:48:10.017Z,99935.08
2019-04-06T11:50:56.704Z,99938.55
2019-04-06T11:53:37.422Z,99925.00
2019-04-06T11:56:26.119Z,99928.40
2019-04-06T11:59:24.530Z,99921.02
2019-04-06T12:02:17.744Z,99925.36
2019-04-06T12:05:10.993Z,99921.46
2019-04-06T12:07:55.651Z,99918.11
2019-04-06T12:10:48.443Z,99917.78
2019-04-06T12:13:36.989Z,99917.45
2019-04-06T12:16:26.226Z,99912.10
2019-04-06T12:19:31.761Z,99910.95
2019-04-06T12:22:28.428Z,99903.70
2019-04-06T12:25:17.430Z,99907.64
2019-04-06T12:28:11.202Z,99900.91
2019-04-06T12:31:07.750Z,99902.39
2019-04-06T12:33:58.755Z,99905.53
2019-04-06T12:36:58.009Z,99889.60
2019-04-06T12:39:53.036Z,99890.91
2019-04-06T12:42:40.902Z,99885.02
2019-04-06T12:45:31.592Z,99883.50
2019-04-06T12:48:32.629Z,99881.41
2019-04-06T12:51:22.988Z,99875.62
2019-04-06T12:54:01.129Z,99872.78
2019-04-06T12:56:52.141Z,99871.89
2019-04-06T12:59:49.028Z,99875.19
2019-04-06T13:02:30.486Z,99871.61
2019-04-06T13:05:35.793Z,99865.48
2019-04-06T13:08:29.344Z,99862.29
2019-04-06T13:11:16.125Z,99859.33
2019-04-06T13:14:04.231Z,99854.48
2019-04-06T13:17:06.825Z,99850.75
2019-04-06T13:20:04.605Z,99854.23
2019-04-06T13:23:13.164Z,99853.17
2019-04-06T13:26:07.502Z,99849.30
2019-04-06T13:29:04.650Z,99840.08
2019-04-06T13:31:56.300Z,99849.00
2019-04-06T13:34:56.115Z,99837.56
2019-04-06T13:37:45.889Z,99842.55
2019-04-06T13:40:33.899Z,99836.87
2019-04-06T13:43:17.744Z,99835.64
2019-04-06T13:46:16.949Z,99827.13
2019-04-06T13:49:07.951Z,99822.50
2019-04-06T13:51:48.020Z,99831.44
2019-04-06T13:54:36.942Z,99824.23
2019-04-06T13:57:23.239Z,99822.42
2019-04-06T14:00:01.969Z,99821.59
2019-04-06T14:02:39.401Z,99824.86
2019-04-06T14:05:27.328Z,99815.70
2019-04-06T14:08:20.338Z,99816.33
2019-04-06T14:10:58.893Z,99812.72
2019-04-06T14:13:36.486Z,99819.77
2019-04-06T14:16:42.350Z,99811.41
2019-04-06T14:19:36.023Z,99820.89
2019-04-06T14:22:29.192Z,99814.55
2019-04-06T14:25:20.853Z,99815.61
2019-04-06T14:28:11.513Z,99814.56
2019-04-06T14:30:59.925Z,99814.86
2019-04-06T14:33:49.328Z,99809.36
2019-04-06T14:36:48.669Z,99807.44
2019-04-06T14:39:45.170Z,99805.08
2019-04-06T14:42:38.429Z,99804.95
2019-04-06T14:45:26.161Z,99805.97
2019-04-06T14:48:15.621Z,99799.78
2019-04-06T14:51:05.916Z,99805.92
2019-04-06T14:53:59.062Z,99805.66
2019-04-06T14:56:52.495Z,99801.88
2019-04-06T14:59:50.163Z,99801.59
2019-04-06T15:02:35.388Z,99796.66
2019-04-06T15:05:24.248Z,99800.08
2019-04-06T15:08:17.912Z,99800.81
2019-04-06T15:11:12.220Z,99797.58
2019-04-06T15:14:02.043Z,99793.79
2019-04-06T15:17:07.695Z,99787.61
2019-04-06T15:20:13.027Z,99785.92
2019-04-06T15:23:02.348Z,99790.39
2019-04-06T15:25:55.881Z,99790.87
2019-04-06T15:28:52.982Z,99788.92
2019-04-06T15:32:02.115Z,99787.94
2019-04-06T15:34:55.384Z,99782.41
2019-04-06T15:37:45.965Z,99785.05
2019-04-06T15:40:41.396Z,99773.58
2019-04-06T15:43:44.475Z,99784.66
2019-04-06T15:46:47.402Z,99780.48
2019-04-06T15:49:40.754Z,99779.47
2019-04-06T15:52:43.074Z,99770.05
2019-04-06T15:55:35.311Z,99774.84
2019-04-06T15:58:24.364Z,99775.64
2019-04-06T16:01:05.387Z,99771.17
2019-04-06T16:04:06.566Z,99778.47
2019-04-06T16:06:47.302Z,99778.41
2019-04-06T16:09:37.526Z,99783.45
2019-04-06T16:12:40.390Z,99784.92
2019-04-06T16:15:18.697Z,99783.81
2019-04-06T16:18:09.082Z,99785.80
2019-04-06T16:20:58.296Z,99782.20
2019-04-06T16:23:47.304Z,99785.08
2019-04-06T16:26:22.420Z,99778.00
2019-04-06T16:29:25.069Z,99779.37
2019-04-06T16:32:32.925Z,99783.21
2019-04-06T16:35:19.717Z,99781.84
2019-04-06T16:38:13.185Z,99780.66
2019-04-06T16:41:07.578Z,99779.89
2019-04-06T16:44:01.502Z,99783.20
2019-04-06T16:46:49.782Z,99775.94
2019-04-06T16:49:38.791Z,99779.55
2019-04-06T16:52:21.892Z,99781.22
2019-04-06T16:54:59.983Z,99777.91
2019-04-06T16:57:59.611Z,99776.58
2019-04-06T17:00:58.930Z,99778.86
2019-04-06T17:03:55.604Z,99780.41
2019-04-06T17:06:52.202Z,99777.84
2019-04-06T17:09:43.515Z,99774.56
2019-04-06T17:12:40.399Z,99779.45
2019-04-06T17:15:40.111Z,99774.70
2019-04-06T17:18:22.233Z,99776.12
2019-04-06T17:21:00.056Z,99779.19
2019-04-06T17:23:49.239Z,99781.63
2019-04-06T17:26:39.521Z,99779.98
2019-04-06T17:29:36.506Z,99781.33
2019-04-06T17:32:16.063Z,99775.11
2019-04-06T17:35:04.962Z,99785.47
2019-04-06T17:37:55.997Z,99780.25
2019-04-06T17:40:47.205Z,99784.03
2019-04-06T17:43:37.443Z,99785.75
2019-04-06T17:46:21.077Z,99789.76
2019-04-06T17:49:14.385Z,99787.05
2019-04-06T17:52:06.818Z,99788.21
2019-04-06T17:55:06.237Z,99789.66
2019-04-06T17:57:55.109Z,99799.00
2019-04-06T18:00:45.463Z,99795.64
2019-04-06T18:03:35.691Z,99796.57
2019-04-06T18:06:35.105Z,99801.19
2019-04-06T18:09:27.363Z,99802.05
2019-04-06T18:12:30.065Z,99805.13
2019-04-06T18:15:02.046Z,99816.85
2019-04-06T18:17:33.765Z,99816.85
2019-04-06T18:20:06.009Z,99817.27
2019-04-06T18:22:38.170Z,99822.95
2019-04-06T18:25:09.845Z,99820.17
2019-04-06T18:27:41.199Z,99822.06
2019-04-06T18:30:12.923Z,99831.26
2019-04-06T18:33:03.046Z,99829.03
2019-04-06T18:35:34.088Z,99833.95
2019-04-06T18:38:27.553Z,99834.82
2019-04-06T18:40:59.309Z,99833.97
2019-04-06T18:43:30.671Z,99840.70
2019-04-06T18:46:02.475Z,99840.70
2019-04-06T18:48:33.874Z,99839.93
2019-04-06T18:51:06.539Z,99843.34
2019-04-06T18:53:38.830Z,99838.05
2019-04-06T18:56:10.814Z,99838.52
2019-04-06T18:58:42.472Z,99835.12
2019-04-06T19:01:13.846Z,99834.71
2019-04-06T19:03:45.549Z,99840.14
2019-04-06T19:06:17.870Z,99849.06
2019-04-06T19:08:50.201Z,99843.98
2019-04-06T19:11:21.913Z,99845.34
2019-04-06T19:13:53.804Z,99839.34
2019-04-06T19:16:25.635Z,99840.30
2019-04-06T19:18:57.055Z,99835.91
2019-04-06T19:21:30.399Z,99841.18
2019-04-06T19:24:02.245Z,99838.70
2019-04-06T19:26:37.065Z,99844.98
2019-04-06T19:29:07.339Z,99847.55
2019-04-06T19:31:38.891Z,99846.23
2019-04-06T19:34:10.294Z,99849.42
2019-04-06T19:36:41.656Z,99843.56
2019-04-06T19:39:16.074Z,99839.16
2019-04-06T19:41:48.276Z,99839.16
2019-04-06T19:44:19.610Z,99853.16
2019-04-06T19:46:51.587Z,99848.47
2019-04-06T19:49:23.092Z,99847.42
2019-04-06T19:51:54.746Z,99845.50
2019-04-06T19:54:26.861Z,99852.36
2019-04-06T19:56:59.231Z,99847.86
2019-04-06T19:59:31.576Z,99848.90
2019-04-06T20:02:03.061Z,99852.98
2019-04-06T20:04:34.546Z,99850.20
2019-04-06T20:07:10.960Z,99852.55
2019-04-06T20:09:42.175Z,99849.52
2019-04-06T20:12:14.135Z,99850.55
2019-04-06T20:14:46.040Z,99850.43
2019-04-06T20:17:17.879Z,99852.25
2019-04-06T20:19:49.856Z,99851.97
2019-04-06T20:22:21.687Z,99844.31
2019-04-06T20:24:53.272Z,99846.45
2019-04-06T20:27:24.614Z,99847.86
2019-04-06T20:29:56.393Z,99849.02
2019-04-06T20:32:28.293Z,99847.03
2019-04-06T20:34:59.600Z,99847.45
2019-04-06T20:37:30.893Z,99848.55
2019-04-06T20:40:02.781Z,99843.58
2019-04-06T20:42:34.894Z,99851.25
2019-04-06T20:45:06.706Z,99846.72
2019-04-06T20:47:38.610Z,99848.69
2019-04-06T20:50:10.470Z,99839.97
2019-04-06T20:52:42.619Z,99844.45
2019-04-06T20:55:14.689Z,99849.16
2019-04-06T20:57:46.155Z,99842.44
2019-04-06T21:00:18.762Z,99846.16
2019-04-06T21:02:52.271Z,99846.28
2019-04-06T21:05:24.861Z,99848.57
2019-04-06T21:07:56.662Z,99845.75
2019-04-06T21:10:28.399Z,99856.01
2019-04-06T21:12:59.915Z,99848.08
2019-04-06T21:15:31.911Z,99848.64
2019-04-06T21:18:04.388Z,99847.55
2019-04-06T21:20:35.761Z,99851.14
2019-04-06T21:23:07.340Z,99844.61
2019-04-06T21:25:42.947Z,99850.39
2019-04-06T21:28:14.598Z,99849.08
2019-04-06T21:30:46.665Z,99840.52
2019-04-06T21:33:18.658Z,99840.52
2019-04-06T21:35:50.171Z,99835.38
2019-04-06T21:38:22.809Z,99833.86
2019-04-06T21:40:55.191Z,99837.91
2019-04-06T21:43:26.552Z,99834.28
2019-04-06T21:45:58.424Z,99837.80
2019-04-06T21:48:30.191Z,99837.59
2019-04-06T21:51:01.904Z,99831.75
2019-04-06T21:53:33.207Z,99830.12
2019-04-06T21:56:07.367Z,99836.34
2019-04-06T21:58:38.129Z,99830.84
2019-04-06T22:01:11.931Z,99830.02
2019-04-06T22:03:43.927Z,99832.39
2019-04-06T22:06:16.166Z,99839.05
2019-04-06T22:08:47.553Z,99834.77
2019-04-06T22:11:18.941Z,99836.24
2019-04-06T22:13:50.305Z,99838.97
2019-04-06T22:16:22.317Z,99834.03
2019-04-06T22:18:53.707Z,99838.97
2019-04-06T22:21:25.123Z,99829.46
2019-04-06T22:23:56.532Z,99837.02
2019-04-06T22:26:28.417Z,99843.36
2019-04-06T22:29:02.764Z,99842.91
2019-04-06T22:31:34.244Z,99844.57
2019-04-06T22:34:05.790Z,99843.67
2019-04-06T22:36:37.201Z,99840.87
2019-04-06T22:39:11.134Z,99845.36
2019-04-06T22:41:43.337Z,99846.17
2019-04-06T22:44:15.376Z,99838.93
2019-04-06T22:46:48.559Z,99841.28
2019-04-06T22:49:20.419Z,99841.37
2019-04-06T22:51:52.798Z,99842.63
2019-04-06T22:54:24.657Z,99843.16
2019-04-06T22:56:56.532Z,99846.63
2019-04-06T22:59:28.008Z,99848.11
2019-04-06T23:02:00.130Z,99847.53
2019-04-06T23:04:50.652Z,99844.47
2019-04-06T23:07:21.971Z,99849.77
2019-04-06T23:09:53.348Z,99840.34
2019-04-06T23:12:25.508Z,99845.37
2019-04-06T23:14:57.759Z,99844.23
2019-04-06T23:17:29.228Z,99834.16
2019-04-06T23:20:01.189Z,99839.48
2019-04-06T23:22:33.150Z,99844.45
2019-04-06T23:25:09.402Z,99839.83
2019-04-06T23:27:41.227Z,99842.89
2019-04-06T23:30:13.149Z,99843.13
2019-04-06T23:32:45.595Z,99848.92
2019-04-06T23:35:16.983Z,99849.06
2019-04-06T23:37:49.213Z,99852.20
2019-04-06T23:40:21.478Z,99856.67
2019-04-06T23:42:54.940Z,99858.72
2019-04-06T23:45:27.514Z,99859.20
2019-04-06T23:47:59.437Z,99856.22
2019-04-06T23:50:31.445Z,99858.05
2019-04-06T23:53:04.245Z,99858.22
2019-04-06T23:55:41.432Z,99859.38
2019-04-06T23:58:15.263Z,99857.28
